createdAt,value
2018-03-25T00:00:03.288Z,5.1
2018-03-25T00:15:02.666Z,5.1
2018-03-25T00:30:02.993Z,5.1
2018-03-25T00:45:02.339Z,5
2018-03-25T01:00:02.682Z,5
2018-03-25T01:15:02.914Z,4.9
2018-03-25T01:30:02.360Z,4.9
2018-03-25T01:45:02.676Z,4.9
2018-03-25T02:00:02.920Z,4.8
2018-03-25T02:15:03.223Z,4.8
2018-03-25T02:30:02.640Z,4.8
2018-03-25T02:45:02.998Z,4.7
2018-03-25T03:00:02.424Z,4.7
2018-03-25T03:15:02.693Z,4.6
2018-03-25T03:30:03.041Z,4.6
2018-03-25T03:45:02.425Z,4.6
2018-03-25T04:00:02.761Z,4.5
2018-03-25T04:15:03.018Z,4.5
2018-03-25T04:30:02.464Z,4.4
2018-03-25T04:45:02.757Z,4.4
2018-03-25T05:00:03.103Z,4.4
2018-03-25T05:15:02.468Z,4.3
2018-03-25T05:30:03.038Z,4.3
2018-03-25T05:45:02.456Z,4.2
2018-03-25T06:00:03.004Z,4.2
2018-03-25T06:15:03.426Z,4.2
2018-03-25T06:30:03.088Z,4.2
2018-03-25T06:45:02.333Z,4.2
2018-03-25T07:00:03.022Z,4.2
2018-03-25T07:15:02.366Z,4.2
2018-03-25T07:30:02.708Z,4.2
2018-03-25T07:45:03.003Z,4.2
2018-03-25T08:00:02.325Z,4.2
2018-03-25T08:15:02.634Z,4.2
2018-03-25T08:30:02.936Z,4.2
2018-03-25T08:45:03.236Z,4.2
2018-03-25T09:00:02.543Z,4.3
2018-03-25T09:15:02.879Z,4.4
2018-03-25T09:30:02.327Z,4.4
2018-03-25T09:45:02.659Z,4.5
2018-03-25T10:00:02.949Z,4.6
2018-03-25T10:15:03.228Z,4.6
2018-03-25T10:30:02.643Z,4.7
2018-03-25T10:45:02.936Z,4.8
2018-03-25T11:00:03.224Z,4.9
2018-03-25T11:15:02.548Z,4.9
2018-03-25T11:30:02.969Z,5.1
2018-03-25T11:45:02.269Z,5.1
2018-03-25T12:00:02.508Z,5.2
2018-03-25T12:15:02.782Z,5.2
2018-03-25T12:30:03.125Z,5.3
2018-03-25T12:45:02.432Z,5.4
2018-03-25T13:00:02.692Z,5.4
2018-03-25T13:15:02.914Z,5.6
2018-03-25T13:30:02.236Z,5.6
2018-03-25T13:45:02.496Z,5.7
2018-03-25T14:00:02.747Z,5.8
2018-03-25T14:15:03.018Z,5.8
2018-03-25T14:30:02.440Z,5.8
2018-03-25T14:45:02.709Z,5.9
2018-03-25T15:00:02.916Z,5.9
2018-03-25T15:15:03.206Z,5.9
2018-03-25T15:30:02.495Z,5.9
2018-03-25T15:45:02.765Z,6
2018-03-25T16:00:03.018Z,6
2018-03-25T16:15:02.288Z,6
2018-03-25T16:30:02.616Z,6
2018-03-25T16:45:02.852Z,6.1
2018-03-25T17:00:03.131Z,6.1
2018-03-25T17:15:02.368Z,6.1
2018-03-25T17:30:02.763Z,6.1
2018-03-25T17:45:03.012Z,6.1
2018-03-25T18:00:02.436Z,6.1
2018-03-25T18:15:02.745Z,6.1
2018-03-25T18:30:03.149Z,6.1
2018-03-25T18:45:02.644Z,6.1
2018-03-25T19:00:03.059Z,6.1
2018-03-25T19:15:02.493Z,6.1
2018-03-25T19:30:02.809Z,6.1
2018-03-25T19:45:03.159Z,6.1
2018-03-25T20:00:02.509Z,6
2018-03-25T20:15:03.095Z,6
2018-03-25T20:30:02.527Z,6
2018-03-25T20:45:02.862Z,6
2018-03-25T21:00:03.126Z,6
2018-03-25T21:15:02.527Z,6
2018-03-25T21:30:02.904Z,6
2018-03-25T21:45:03.139Z,5.9
2018-03-25T22:00:02.680Z,5.9
2018-03-25T22:15:03.046Z,5.9
2018-03-25T22:30:02.615Z,5.9
2018-03-25T22:45:02.896Z,5.9
2018-03-25T23:00:03.151Z,5.9
2018-03-25T23:15:02.555Z,5.9
2018-03-25T23:30:02.897Z,5.9
2018-03-25T23:45:03.267Z,5.9
